createdAt,value
2018-01-03T00:00:19.517Z,92.60
2018-01-03T00:02:54.028Z,92.80
2018-01-03T00:05:22.759Z,92.80
2018-01-03T00:07:50.409Z,93.00
2018-01-03T00:10:20.055Z,93.10
2018-01-03T00:12:48.506Z,93.20
2018-01-03T00:17:51.313Z,93.30
2018-01-03T00:20:22.898Z,92.70
2018-01-03T00:22:51.637Z,93.30
2018-01-03T00:25:20.170Z,92.90
2018-01-03T00:27:48.571Z,92.90
2018-01-03T00:30:18.196Z,93.00
2018-01-03T00:32:45.790Z,93.20
2018-01-03T00:35:14.199Z,93.40
2018-01-03T00:37:42.716Z,93.40
2018-01-03T00:40:10.885Z,93.50
2018-01-03T00:42:41.348Z,93.40
2018-01-03T00:45:09.345Z,93.50
2018-01-03T00:47:36.890Z,93.60
2018-01-03T00:50:05.474Z,93.80
2018-01-03T00:52:33.368Z,93.80
2018-01-03T00:55:01.965Z,93.70
2018-01-03T00:57:30.109Z,93.60
2018-01-03T00:59:58.450Z,93.70
2018-01-03T01:02:26.355Z,93.80
2018-01-03T01:04:55.519Z,93.60
2018-01-03T01:07:24.541Z,93.60
2018-01-03T01:09:52.676Z,93.60
2018-01-03T01:12:21.123Z,93.50
2018-01-03T01:14:49.523Z,93.60
2018-01-03T01:17:18.301Z,93.60
2018-01-03T01:19:46.608Z,93.70
2018-01-03T01:22:14.203Z,93.60
2018-01-03T01:24:42.699Z,93.50
2018-01-03T01:27:11.513Z,93.50
2018-01-03T01:29:39.561Z,93.40
2018-01-03T01:32:08.047Z,93.30
2018-01-03T01:34:35.719Z,93.40
2018-01-03T01:37:04.521Z,93.50
2018-01-03T01:39:33.995Z,93.40
2018-01-03T01:42:02.795Z,93.40
2018-01-03T01:44:30.337Z,93.20
2018-01-03T01:46:58.868Z,93.10
2018-01-03T01:49:28.836Z,92.90
2018-01-03T01:51:58.857Z,92.90
2018-01-03T01:54:26.430Z,92.70
2018-01-03T01:56:54.897Z,92.60
2018-01-03T01:59:23.250Z,92.90
2018-01-03T02:01:50.983Z,92.50
2018-01-03T02:04:20.284Z,92.40
2018-01-03T02:06:49.464Z,92.40
2018-01-03T02:09:17.017Z,92.20
2018-01-03T02:11:44.631Z,92.20
2018-01-03T02:14:13.358Z,92.00
2018-01-03T02:16:41.670Z,91.70
2018-01-03T02:19:09.212Z,91.80
2018-01-03T02:21:36.793Z,91.80
2018-01-03T02:24:04.342Z,91.60
2018-01-03T02:26:31.970Z,91.60
2018-01-03T02:28:59.542Z,91.70
2018-01-03T02:31:28.046Z,91.80
2018-01-03T02:33:56.875Z,91.90
2018-01-03T02:36:25.131Z,92.00
2018-01-03T02:38:52.695Z,92.10
2018-01-03T02:41:20.239Z,92.20
2018-01-03T02:43:48.779Z,92.20
2018-01-03T02:46:16.329Z,92.10
2018-01-03T02:48:44.687Z,91.80
2018-01-03T02:51:12.245Z,91.80
2018-01-03T02:53:39.808Z,91.80
2018-01-03T02:56:07.367Z,91.70
2018-01-03T02:58:34.934Z,91.70
2018-01-03T03:01:03.756Z,91.80
2018-01-03T03:03:31.304Z,91.80
2018-01-03T03:05:58.840Z,91.80
2018-01-03T03:08:27.207Z,91.90
2018-01-03T03:10:56.519Z,92.00
2018-01-03T03:13:25.553Z,91.80
2018-01-03T03:15:53.142Z,92.20
2018-01-03T03:18:21.794Z,91.80
2018-01-03T03:20:50.204Z,91.80
2018-01-03T03:23:19.746Z,91.70
2018-01-03T03:25:49.990Z,91.30
2018-01-03T03:28:18.312Z,91.20
2018-01-03T03:30:45.835Z,91.20
2018-01-03T03:33:13.411Z,91.00
2018-01-03T03:35:42.163Z,91.10
2018-01-03T03:38:10.594Z,91.10
2018-01-03T03:40:38.156Z,91.00
2018-01-03T03:43:05.760Z,90.90
2018-01-03T03:45:34.563Z,90.70
2018-01-03T03:48:02.135Z,90.70
2018-01-03T03:50:30.920Z,90.40
2018-01-03T03:52:58.504Z,90.30
2018-01-03T03:55:26.075Z,90.10
2018-01-03T03:57:53.790Z,90.00
2018-01-03T04:00:21.423Z,89.10
2018-01-03T04:02:49.860Z,88.70
2018-01-03T04:05:17.422Z,88.00
2018-01-03T04:07:45.837Z,86.90
2018-01-03T04:10:14.591Z,86.90
2018-01-03T04:12:42.987Z,86.40
2018-01-03T04:15:11.347Z,85.30
2018-01-03T04:17:38.917Z,85.20
2018-01-03T04:20:08.009Z,85.10
2018-01-03T04:22:36.003Z,85.00
2018-01-03T04:25:03.614Z,84.90
2018-01-03T04:27:31.187Z,84.60
2018-01-03T04:29:59.882Z,84.50
2018-01-03T04:32:27.427Z,84.60
2018-01-03T04:34:55.781Z,84.30
2018-01-03T04:37:24.318Z,84.30
2018-01-03T04:39:51.899Z,85.50
2018-01-03T04:42:19.451Z,84.60
2018-01-03T04:44:47.919Z,84.90
2018-01-03T04:47:15.496Z,84.70
2018-01-03T04:49:44.092Z,84.40
2018-01-03T04:52:11.686Z,84.20
2018-01-03T04:54:40.259Z,84.10
2018-01-03T04:57:08.835Z,83.60
2018-01-03T04:59:37.175Z,84.40
2018-01-03T05:02:04.799Z,84.20
2018-01-03T05:04:33.579Z,83.90
2018-01-03T05:07:02.282Z,84.00
2018-01-03T05:09:30.643Z,84.00
2018-01-03T05:11:58.774Z,83.90
2018-01-03T05:14:26.316Z,84.10
2018-01-03T05:16:53.896Z,83.60
2018-01-03T05:19:21.530Z,83.70
2018-01-03T05:21:50.016Z,83.70
2018-01-03T05:24:17.571Z,83.90
2018-01-03T05:26:45.892Z,83.60
2018-01-03T05:29:13.419Z,83.40
2018-01-03T05:31:41.163Z,83.70
2018-01-03T05:34:08.815Z,83.60
2018-01-03T05:36:36.523Z,83.50
2018-01-03T05:39:05.056Z,83.30
2018-01-03T05:41:33.388Z,82.70
2018-01-03T05:44:00.934Z,82.60
2018-01-03T05:46:29.274Z,82.20
2018-01-03T05:48:56.827Z,82.20
2018-01-03T05:51:24.396Z,82.10
2018-01-03T05:53:54.257Z,82.40
2018-01-03T05:56:22.420Z,82.20
2018-01-03T05:58:50.906Z,82.20
2018-01-03T06:01:18.514Z,82.40
2018-01-03T06:03:46.878Z,82.10
2018-01-03T06:06:15.265Z,82.30
2018-01-03T06:08:43.811Z,82.10
2018-01-03T06:11:12.350Z,82.10
2018-01-03T06:13:40.724Z,82.00
2018-01-03T06:16:08.911Z,82.30
2018-01-03T06:18:37.329Z,82.20
2018-01-03T06:21:06.523Z,82.50
2018-01-03T06:23:34.082Z,82.50
2018-01-03T06:26:02.447Z,82.60
2018-01-03T06:28:30.022Z,82.50
2018-01-03T06:30:57.608Z,82.70
2018-01-03T06:33:25.168Z,82.70
2018-01-03T06:35:53.817Z,82.70
2018-01-03T06:38:21.413Z,82.50
2018-01-03T06:40:48.956Z,83.20
2018-01-03T06:43:16.562Z,84.10
2018-01-03T06:45:45.116Z,84.20
2018-01-03T06:48:12.686Z,83.30
2018-01-03T06:50:40.221Z,84.00
2018-01-03T06:53:08.720Z,83.80
2018-01-03T06:55:37.453Z,83.90
2018-01-03T06:58:06.512Z,84.80
2018-01-03T07:00:34.832Z,85.50
2018-01-03T07:03:03.377Z,85.50
2018-01-03T07:05:30.936Z,86.40
2018-01-03T07:07:59.334Z,87.00
2018-01-03T07:10:26.935Z,87.60
2018-01-03T07:12:54.488Z,87.50
2018-01-03T07:15:23.049Z,87.50
2018-01-03T07:17:51.378Z,87.50
2018-01-03T07:20:19.687Z,87.90
2018-01-03T07:22:47.251Z,87.90
2018-01-03T07:25:15.652Z,88.60
2018-01-03T07:27:43.215Z,89.20
2018-01-03T07:30:11.579Z,90.50
2018-01-03T07:32:39.188Z,91.80
2018-01-03T07:35:06.750Z,92.70
2018-01-03T07:37:34.313Z,94.00
2018-01-03T07:40:02.789Z,95.60
2018-01-03T07:42:31.202Z,96.80
2018-01-03T07:44:58.837Z,96.70
2018-01-03T07:47:26.549Z,97.20
2018-01-03T07:49:55.789Z,97.80
2018-01-03T07:52:25.280Z,98.90
2018-01-03T07:54:52.967Z,98.90
2018-01-03T07:57:20.562Z,99.20
2018-01-03T07:59:49.158Z,99.40
2018-01-03T08:02:18.171Z,99.60
2018-01-03T08:04:46.894Z,99.80
2018-01-03T08:07:14.518Z,99.90
2018-01-03T08:09:43.712Z,99.90
2018-01-03T08:12:12.031Z,99.90
2018-01-03T08:14:39.679Z,99.90
2018-01-03T08:17:07.799Z,99.90
2018-01-03T08:19:35.656Z,99.90
2018-01-03T08:22:03.992Z,99.90
2018-01-03T08:24:31.566Z,99.90
2018-01-03T08:26:59.143Z,99.90
2018-01-03T08:29:26.703Z,99.90
2018-01-03T08:31:54.340Z,99.90
2018-01-03T08:34:21.922Z,99.90
2018-01-03T08:36:51.630Z,99.90
2018-01-03T08:39:19.193Z,99.90
2018-01-03T08:41:48.391Z,99.90
2018-01-03T08:44:15.948Z,99.90
2018-01-03T08:46:44.203Z,99.90
2018-01-03T08:49:11.792Z,99.90
2018-01-03T08:51:39.347Z,99.90
2018-01-03T08:54:08.560Z,99.90
2018-01-03T08:56:36.691Z,99.90
2018-01-03T08:59:04.267Z,99.90
2018-01-03T09:01:31.840Z,99.90
2018-01-03T09:04:00.077Z,99.90
2018-01-03T09:06:27.650Z,99.90
2018-01-03T09:08:55.326Z,99.90
2018-01-03T09:11:23.644Z,99.90
2018-01-03T09:13:53.017Z,99.90
2018-01-03T09:16:21.401Z,99.90
2018-01-03T09:18:48.949Z,99.90
2018-01-03T09:21:17.548Z,99.90
2018-01-03T09:23:45.124Z,99.90
2018-01-03T09:26:13.463Z,99.90
2018-01-03T09:28:41.003Z,99.90
2018-01-03T09:31:08.572Z,99.90
2018-01-03T09:33:38.810Z,99.90
2018-01-03T09:36:07.134Z,99.90
2018-01-03T09:38:35.379Z,99.90
2018-01-03T09:41:04.871Z,99.90
2018-01-03T09:43:32.419Z,99.90
2018-01-03T09:45:59.965Z,99.90
2018-01-03T09:48:28.520Z,99.90
2018-01-03T09:50:57.077Z,99.90
2018-01-03T09:53:26.550Z,99.90
2018-01-03T09:55:54.896Z,99.80
2018-01-03T09:58:22.436Z,99.30
2018-01-03T10:00:51.018Z,99.90
2018-01-03T10:03:19.878Z,97.70
2018-01-03T10:05:47.438Z,97.70
2018-01-03T10:08:15.008Z,97.10
2018-01-03T10:10:42.567Z,97.20
2018-01-03T10:13:11.069Z,98.20
2018-01-03T10:15:38.620Z,99.10
2018-01-03T10:18:06.911Z,99.50
2018-01-03T10:20:35.232Z,98.50
2018-01-03T10:23:02.847Z,98.40
2018-01-03T10:25:31.176Z,97.60
2018-01-03T10:27:59.846Z,97.60
2018-01-03T10:30:27.436Z,97.50
2018-01-03T10:32:54.956Z,98.30
2018-01-03T10:35:22.495Z,98.90
2018-01-03T10:37:50.852Z,99.20
2018-01-03T10:40:18.582Z,99.70
2018-01-03T10:42:46.157Z,99.60
2018-01-03T10:45:14.604Z,99.40
2018-01-03T10:47:43.592Z,99.10
2018-01-03T10:50:11.702Z,99.10
2018-01-03T10:52:40.019Z,97.50
2018-01-03T10:55:07.557Z,97.50
2018-01-03T10:57:35.110Z,99.50
2018-01-03T11:00:03.495Z,98.70
2018-01-03T11:02:32.017Z,97.80
2018-01-03T11:05:00.359Z,96.90
2018-01-03T11:07:27.926Z,98.10
2018-01-03T11:09:57.506Z,97.20
2018-01-03T11:12:25.909Z,96.80
2018-01-03T11:14:54.000Z,95.90
2018-01-03T11:17:23.082Z,94.20
2018-01-03T11:19:51.564Z,94.30
2018-01-03T11:22:20.092Z,94.20
2018-01-03T11:24:48.492Z,95.70
2018-01-03T11:27:16.268Z,95.70
2018-01-03T11:29:44.595Z,95.50
2018-01-03T11:32:12.288Z,95.50
2018-01-03T11:34:40.627Z,96.10
2018-01-03T11:37:08.967Z,96.60
2018-01-03T11:39:36.581Z,96.60
2018-01-03T11:42:04.167Z,95.00
2018-01-03T11:44:32.499Z,94.10
2018-01-03T11:47:01.042Z,94.10
2018-01-03T11:49:29.423Z,95.00
2018-01-03T11:51:59.385Z,95.60
2018-01-03T11:54:26.943Z,95.60
2018-01-03T11:56:56.176Z,92.20
2018-01-03T11:59:25.099Z,92.20
2018-01-03T12:01:53.683Z,92.30
2018-01-03T12:04:23.407Z,93.40
2018-01-03T12:06:51.814Z,94.60
2018-01-03T12:09:19.416Z,94.30
2018-01-03T12:11:47.717Z,95.10
2018-01-03T12:14:16.574Z,92.50
2018-01-03T12:16:45.056Z,92.40
2018-01-03T12:19:13.561Z,93.10
2018-01-03T12:21:41.097Z,92.00
2018-01-03T12:24:12.070Z,92.30
2018-01-03T12:26:39.699Z,92.30
2018-01-03T12:29:08.176Z,92.40
2018-01-03T12:31:36.722Z,93.20
2018-01-03T12:34:05.089Z,91.70
2018-01-03T12:36:32.682Z,90.50
2018-01-03T12:39:01.474Z,91.10
2018-01-03T12:41:29.032Z,91.80
2018-01-03T12:43:56.647Z,91.50
2018-01-03T12:46:24.286Z,91.40
2018-01-03T12:48:51.857Z,92.40
2018-01-03T12:51:20.046Z,91.60
2018-01-03T12:53:48.446Z,90.90
2018-01-03T12:56:16.704Z,90.90
2018-01-03T12:58:45.645Z,90.40
2018-01-03T13:01:13.300Z,91.00
2018-01-03T13:03:41.904Z,90.90
2018-01-03T13:06:10.508Z,91.60
2018-01-03T13:08:39.000Z,91.20
2018-01-03T13:11:08.097Z,91.00
2018-01-03T13:13:35.728Z,90.90
2018-01-03T13:16:04.125Z,88.90
2018-01-03T13:18:31.721Z,90.40
2018-01-03T13:21:00.148Z,90.00
2018-01-03T13:23:28.140Z,89.00
2018-01-03T13:25:56.684Z,84.80
2018-01-03T13:28:25.079Z,81.90
2018-01-03T13:30:53.520Z,81.30
2018-01-03T13:33:21.087Z,80.80
2018-01-03T13:35:50.028Z,77.30
2018-01-03T13:38:17.633Z,77.20
2018-01-03T13:40:48.857Z,74.10
2018-01-03T13:43:17.327Z,71.20
2018-01-03T13:45:45.521Z,70.60
2018-01-03T13:48:14.551Z,73.10
2018-01-03T13:50:42.115Z,73.10
2018-01-03T13:53:09.710Z,71.70
2018-01-03T13:55:37.490Z,71.00
2018-01-03T13:58:05.785Z,76.90
2018-01-03T14:00:33.364Z,73.40
2018-01-03T14:03:01.636Z,72.00
2018-01-03T14:05:30.040Z,69.00
2018-01-03T14:07:58.487Z,69.70
2018-01-03T14:10:26.181Z,68.30
2018-01-03T14:12:55.357Z,66.40
2018-01-03T14:15:22.944Z,66.40
2018-01-03T14:17:50.503Z,66.70
2018-01-03T14:20:19.056Z,66.40
2018-01-03T14:22:46.637Z,72.50
2018-01-03T14:25:16.220Z,72.00
2018-01-03T14:27:44.900Z,77.40
2018-01-03T14:30:14.527Z,74.10
2018-01-03T14:32:42.090Z,74.80
2018-01-03T14:35:09.719Z,74.20
2018-01-03T14:37:38.023Z,74.40
2018-01-03T14:40:07.643Z,73.40
2018-01-03T14:42:35.235Z,76.40
2018-01-03T14:45:04.792Z,76.90
2018-01-03T14:47:33.783Z,74.40
2018-01-03T14:50:01.839Z,74.30
2018-01-03T14:52:29.399Z,87.50
2018-01-03T14:54:59.153Z,76.70
2018-01-03T14:57:26.799Z,74.40
2018-01-03T14:59:54.399Z,70.50
2018-01-03T15:02:22.777Z,76.60
2018-01-03T15:04:50.519Z,76.50
2018-01-03T15:07:19.656Z,73.80
2018-01-03T15:09:48.105Z,71.00
2018-01-03T15:12:16.479Z,86.00
2018-01-03T15:14:44.037Z,86.00
2018-01-03T15:17:12.947Z,86.40
2018-01-03T15:19:41.531Z,84.80
2018-01-03T15:22:09.179Z,86.60
2018-01-03T15:24:37.316Z,88.80
2018-01-03T15:27:04.917Z,85.40
2018-01-03T15:29:34.189Z,90.50
2018-01-03T15:32:02.618Z,90.30
2018-01-03T15:34:31.790Z,90.40
2018-01-03T15:36:59.482Z,90.40
2018-01-03T15:39:27.046Z,84.10
2018-01-03T15:41:54.668Z,85.50
2018-01-03T15:44:23.100Z,77.40
2018-01-03T15:46:50.872Z,76.80
2018-01-03T15:49:19.579Z,79.20
2018-01-03T15:51:48.089Z,82.10
2018-01-03T15:54:15.674Z,76.90
2018-01-03T15:56:44.152Z,76.70
2018-01-03T15:59:12.531Z,72.70
2018-01-03T16:01:42.006Z,73.70
2018-01-03T16:04:10.344Z,76.20
2018-01-03T16:06:38.494Z,76.10
2018-01-03T16:09:06.069Z,76.60
2018-01-03T16:11:33.632Z,73.20
2018-01-03T16:14:02.193Z,75.30
2018-01-03T16:16:29.780Z,75.20
2018-01-03T16:18:58.178Z,77.70
2018-01-03T16:21:27.349Z,79.10
2018-01-03T16:23:55.011Z,79.10
2018-01-03T16:26:22.981Z,80.70
2018-01-03T16:28:52.380Z,80.60
2018-01-03T16:31:21.552Z,83.40
2018-01-03T16:33:50.055Z,83.40
2018-01-03T16:36:19.007Z,84.40
2018-01-03T16:38:47.536Z,84.30
2018-01-03T16:41:16.237Z,86.00
2018-01-03T16:43:43.818Z,86.60
2018-01-03T16:46:11.452Z,87.70
2018-01-03T16:48:39.412Z,87.60
2018-01-03T16:51:07.995Z,87.50
2018-01-03T16:53:37.402Z,89.20
2018-01-03T16:56:05.804Z,90.40
2018-01-03T16:58:34.856Z,90.90
2018-01-03T17:01:03.839Z,90.80
2018-01-03T17:03:31.437Z,90.60
2018-01-03T17:05:59.936Z,90.50
2018-01-03T17:08:27.490Z,90.30
2018-01-03T17:10:55.027Z,90.40
2018-01-03T17:13:23.519Z,90.70
2018-01-03T17:15:51.088Z,90.50
2018-01-03T17:18:19.207Z,90.10
2018-01-03T17:20:47.951Z,90.20
2018-01-03T17:23:16.362Z,88.50
2018-01-03T17:25:44.514Z,87.70
2018-01-03T17:28:12.895Z,87.30
2018-01-03T17:30:41.160Z,86.10
2018-01-03T17:33:09.537Z,85.70
2018-01-03T17:35:37.144Z,84.40
2018-01-03T17:38:04.783Z,85.20
2018-01-03T17:40:33.475Z,84.20
2018-01-03T17:43:01.097Z,83.30
2018-01-03T17:45:28.671Z,83.00
2018-01-03T17:47:56.263Z,82.60
2018-01-03T17:50:25.243Z,81.80
2018-01-03T17:52:52.838Z,80.40
2018-01-03T17:55:20.402Z,79.80
2018-01-03T17:57:48.849Z,78.70
2018-01-03T18:00:17.259Z,77.70
2018-01-03T18:02:45.620Z,76.10
2018-01-03T18:05:13.997Z,76.10
2018-01-03T18:07:41.596Z,75.60
2018-01-03T18:10:10.206Z,75.20
2018-01-03T18:12:38.567Z,75.40
2018-01-03T18:15:06.946Z,74.70
2018-01-03T18:17:34.530Z,74.60
2018-01-03T18:20:03.698Z,74.80
2018-01-03T18:22:31.300Z,74.70
2018-01-03T18:24:58.950Z,74.80
2018-01-03T18:27:26.771Z,78.70
2018-01-03T18:29:54.520Z,75.80
2018-01-03T18:32:25.462Z,74.60
2018-01-03T18:34:53.159Z,74.80
2018-01-03T18:37:21.914Z,76.00
2018-01-03T18:39:50.259Z,76.30
2018-01-03T18:42:23.709Z,76.30
2018-01-03T18:44:53.019Z,76.70
2018-01-03T18:47:24.325Z,77.30
2018-01-03T18:49:55.113Z,77.50
2018-01-03T18:52:23.910Z,77.40
2018-01-03T18:54:52.774Z,78.30
2018-01-03T18:57:21.513Z,79.00
2018-01-03T18:59:52.622Z,79.40
2018-01-03T19:02:23.156Z,79.90
2018-01-03T19:04:54.504Z,80.90
2018-01-03T19:07:36.763Z,82.10
2018-01-03T19:10:08.777Z,82.10
2018-01-03T19:12:41.285Z,82.60
2018-01-03T19:15:10.817Z,83.30
2018-01-03T19:17:44.093Z,83.70
2018-01-03T19:20:16.623Z,83.30
2018-01-03T19:22:46.928Z,83.30
2018-01-03T19:25:21.611Z,83.50
2018-01-03T19:27:49.765Z,83.40
2018-01-03T19:30:18.110Z,83.30
2018-01-03T19:32:49.699Z,83.70
2018-01-03T19:35:18.847Z,84.20
2018-01-03T19:37:48.671Z,85.30
2018-01-03T19:40:17.877Z,85.70
2018-01-03T19:42:50.585Z,84.90
2018-01-03T19:45:20.391Z,84.80
2018-01-03T19:47:50.533Z,84.80
2018-01-03T19:50:19.165Z,84.70
2018-01-03T19:52:47.990Z,84.90
2018-01-03T19:55:27.188Z,84.60
2018-01-03T19:57:56.361Z,83.50
2018-01-03T20:00:26.679Z,83.40
2018-01-03T20:02:56.438Z,83.20
2018-01-03T20:05:28.328Z,82.60
2018-01-03T20:07:58.492Z,81.20
2018-01-03T20:10:27.982Z,81.10
2018-01-03T20:13:03.080Z,80.40
2018-01-03T20:15:32.252Z,80.40
2018-01-03T20:20:36.569Z,79.00
2018-01-03T20:23:07.257Z,79.20
2018-01-03T20:25:37.012Z,78.90
2018-01-03T20:28:06.099Z,79.00
2018-01-03T20:30:35.666Z,78.10
2018-01-03T20:33:03.394Z,78.10
2018-01-03T20:38:25.678Z,78.20
2018-01-03T20:40:56.865Z,78.60
2018-01-03T20:43:28.794Z,78.90
2018-01-03T20:46:03.091Z,78.80
2018-01-03T20:48:31.943Z,79.30
2018-01-03T20:51:00.480Z,79.30
2018-01-03T20:53:29.689Z,81.70
2018-01-03T20:56:01.226Z,82.50
2018-01-03T20:58:30.868Z,81.70
2018-01-03T21:00:58.608Z,82.20
2018-01-03T21:03:29.639Z,81.90
2018-01-03T21:05:58.112Z,82.50
2018-01-03T21:08:28.351Z,83.00
2018-01-03T21:10:56.248Z,83.00
2018-01-03T21:13:23.944Z,83.70
2018-01-03T21:16:02.534Z,83.90
2018-01-03T21:18:31.906Z,84.10
2018-01-03T21:21:00.627Z,84.10
2018-01-03T21:23:32.326Z,84.10
2018-01-03T21:26:02.086Z,84.30
2018-01-03T21:28:29.721Z,84.20
2018-01-03T21:30:57.720Z,83.50
2018-01-03T21:33:26.237Z,83.20
2018-01-03T21:35:54.430Z,83.50
2018-01-03T21:41:21.772Z,83.90
2018-01-03T21:43:49.373Z,82.70
2018-01-03T21:46:19.389Z,83.30
2018-01-03T21:48:48.437Z,83.70
2018-01-03T21:51:17.918Z,82.20
2018-01-03T21:53:48.398Z,82.10
2018-01-03T21:56:16.025Z,82.10
2018-01-03T21:58:53.455Z,81.20
2018-01-03T22:01:45.454Z,80.50
2018-01-03T22:04:16.003Z,80.60
2018-01-03T22:12:31.460Z,82.50
2018-01-03T22:15:01.804Z,84.70
2018-01-03T22:17:36.026Z,86.40
2018-01-03T22:20:06.510Z,86.40
2018-01-03T22:22:39.282Z,88.40
2018-01-03T22:25:15.920Z,90.40
2018-01-03T22:27:49.394Z,91.20
2018-01-03T22:30:21.555Z,91.60
2018-01-03T22:32:52.174Z,92.40
2018-01-03T22:35:19.893Z,92.10
2018-01-03T22:37:51.836Z,91.80
2018-01-03T22:40:22.732Z,92.00
2018-01-03T22:42:54.020Z,91.90
2018-01-03T22:45:23.838Z,91.90
2018-01-03T22:47:54.931Z,92.20
2018-01-03T22:50:27.076Z,91.90
2018-01-03T22:52:57.016Z,91.90
2018-01-03T22:55:25.234Z,91.70
2018-01-03T22:57:55.695Z,91.20
2018-01-03T23:00:25.467Z,91.20
2018-01-03T23:02:53.660Z,90.90
2018-01-03T23:05:28.204Z,90.70
2018-01-03T23:07:58.315Z,90.60
2018-01-03T23:10:29.319Z,90.60
2018-01-03T23:13:00.228Z,90.30
2018-01-03T23:15:32.200Z,90.30
2018-01-03T23:18:04.569Z,90.40
2018-01-03T23:25:59.729Z,89.20
2018-01-03T23:28:30.159Z,88.80
2018-01-03T23:31:13.275Z,89.10
2018-01-03T23:33:42.072Z,89.10
2018-01-03T23:36:23.351Z,88.80
2018-01-03T23:39:04.922Z,88.70
2018-01-03T23:41:53.701Z,88.60
2018-01-03T23:44:29.461Z,87.40
2018-01-03T23:46:57.863Z,88.30
2018-01-03T23:49:33.568Z,88.00
2018-01-03T23:58:03.688Z,87.10
